createdAt,value
2022-11-27T00:00:28.362Z,5.93
2022-11-27T00:04:31.559Z,6.50
2022-11-27T00:08:36.233Z,4.55
2022-11-27T00:12:39.383Z,5.55
2022-11-27T00:16:42.775Z,3.42
2022-11-27T00:20:45.731Z,4.70
2022-11-27T00:24:50.182Z,6.15
2022-11-27T00:28:53.436Z,4.72
2022-11-27T00:32:56.421Z,5.20
2022-11-27T00:36:59.365Z,6.13
2022-11-27T00:41:08.547Z,4.95
2022-11-27T00:45:12.260Z,5.28
2022-11-27T00:49:16.438Z,5.15
2022-11-27T00:53:19.349Z,5.05
2022-11-27T00:57:25.060Z,4.85
2022-11-27T01:01:30.360Z,6.10
2022-11-27T01:05:33.413Z,6.03
2022-11-27T01:09:36.363Z,4.95
2022-11-27T01:13:40.632Z,6.22
2022-11-27T01:17:43.611Z,6.97
2022-11-27T01:21:46.787Z,6.68
2022-11-27T01:25:49.718Z,6.22
2022-11-27T01:29:54.070Z,4.90
2022-11-27T01:33:59.335Z,5.47
2022-11-27T01:38:02.363Z,6.53
2022-11-27T01:42:06.061Z,6.20
2022-11-27T01:46:21.568Z,5.85
2022-11-27T01:50:28.194Z,4.25
2022-11-27T01:54:34.101Z,5.60
2022-11-27T01:58:37.539Z,7.45
2022-11-27T02:02:43.211Z,4.40
2022-11-27T02:06:46.528Z,5.35
2022-11-27T02:10:54.575Z,5.22
2022-11-27T02:15:04.799Z,5.80
2022-11-27T02:19:22.006Z,5.82
2022-11-27T02:23:49.756Z,5.93
2022-11-27T02:28:13.120Z,5.35
2022-11-27T02:32:23.121Z,4.60
2022-11-27T02:36:32.486Z,5.65
2022-11-27T02:40:41.074Z,5.88
2022-11-27T02:44:48.763Z,6.70
2022-11-27T02:48:57.963Z,6.72
2022-11-27T02:53:05.576Z,4.65
2022-11-27T02:57:11.015Z,5.50
2022-11-27T03:01:16.042Z,5.57
2022-11-27T03:05:23.764Z,6.38
2022-11-27T03:09:33.724Z,4.95
2022-11-27T03:13:40.601Z,5.38
2022-11-27T03:17:53.846Z,3.47
2022-11-27T03:22:01.083Z,5.88
2022-11-27T03:26:04.031Z,3.70
2022-11-27T03:30:09.426Z,5.93
2022-11-27T03:34:13.055Z,4.82
2022-11-27T03:38:17.723Z,4.22
2022-11-27T03:42:28.543Z,5.60
2022-11-27T03:46:41.002Z,4.32
2022-11-27T03:50:57.547Z,4.05
2022-11-27T03:55:09.498Z,7.18
2022-11-27T03:59:20.226Z,5.85
2022-11-27T04:03:26.194Z,6.07
2022-11-27T04:07:29.175Z,4.82
2022-11-27T04:11:33.866Z,4.82
2022-11-27T04:15:37.926Z,5.32
2022-11-27T04:19:41.074Z,5.35
2022-11-27T04:23:44.609Z,8.90
2022-11-27T04:27:48.929Z,5.85
2022-11-27T04:31:51.966Z,7.00
2022-11-27T04:35:55.018Z,5.53
2022-11-27T04:39:57.973Z,6.30
2022-11-27T04:44:02.481Z,5.45
2022-11-27T04:48:06.135Z,5.70
2022-11-27T04:52:10.798Z,5.63
2022-11-27T04:56:13.744Z,4.40
2022-11-27T05:00:19.154Z,5.82
2022-11-27T05:04:22.477Z,4.72
2022-11-27T05:08:26.004Z,6.93
2022-11-27T05:12:28.980Z,8.13
2022-11-27T05:16:33.401Z,6.53
2022-11-27T05:20:36.422Z,6.40
2022-11-27T05:24:39.881Z,7.65
2022-11-27T05:28:43.003Z,11.35
2022-11-27T05:32:47.291Z,6.97
2022-11-27T05:36:50.274Z,8.07
2022-11-27T05:40:53.163Z,7.13
2022-11-27T05:44:58.418Z,8.18
2022-11-27T05:49:03.018Z,7.10
2022-11-27T05:53:05.982Z,8.25
2022-11-27T05:57:08.910Z,7.90
2022-11-27T06:01:12.580Z,8.65
2022-11-27T06:05:16.974Z,9.43
2022-11-27T06:09:19.860Z,9.70
2022-11-27T06:13:22.777Z,8.48
2022-11-27T06:17:25.663Z,10.38
2022-11-27T06:21:29.929Z,10.20
2022-11-27T06:25:32.840Z,11.73
2022-11-27T06:29:37.638Z,11.60
2022-11-27T06:33:40.514Z,11.88
2022-11-27T06:37:44.792Z,9.65
2022-11-27T06:41:47.997Z,10.93
2022-11-27T06:45:57.132Z,12.10
2022-11-27T06:50:00.172Z,13.88
2022-11-27T06:54:04.569Z,10.38
2022-11-27T06:58:07.499Z,14.65
2022-11-27T07:02:14.616Z,10.05
2022-11-27T07:06:21.886Z,9.40
2022-11-27T07:10:26.163Z,12.48
2022-11-27T07:14:29.354Z,12.75
2022-11-27T07:18:35.524Z,11.60
2022-11-27T07:22:38.817Z,10.23
2022-11-27T07:26:43.119Z,14.60
2022-11-27T07:30:46.074Z,11.70
2022-11-27T07:34:49.212Z,13.65
2022-11-27T07:38:52.253Z,15.98
2022-11-27T07:42:56.592Z,13.35
2022-11-27T07:46:59.907Z,15.18
2022-11-27T07:51:02.993Z,11.98
2022-11-27T07:55:06.678Z,15.50
2022-11-27T07:59:11.140Z,13.40
2022-11-27T08:03:14.105Z,11.68
2022-11-27T08:07:17.262Z,13.40
2022-11-27T08:11:22.557Z,13.10
2022-11-27T08:15:26.887Z,12.50
2022-11-27T08:19:30.038Z,11.73
2022-11-27T08:23:33.187Z,11.70
2022-11-27T08:27:36.322Z,10.65
2022-11-27T08:31:40.644Z,12.55
2022-11-27T08:35:49.298Z,14.38
2022-11-27T08:40:13.345Z,13.25
2022-11-27T08:44:20.389Z,10.73
2022-11-27T08:48:27.686Z,11.43
2022-11-27T08:52:30.615Z,9.98
2022-11-27T08:56:33.646Z,12.65
2022-11-27T09:00:37.993Z,13.00
2022-11-27T09:04:42.653Z,9.57
2022-11-27T09:08:46.609Z,8.85
2022-11-27T09:12:50.233Z,9.35
2022-11-27T09:16:54.098Z,12.20
2022-11-27T09:21:01.703Z,10.25
2022-11-27T09:25:05.180Z,8.88
2022-11-27T09:29:08.095Z,10.15
2022-11-27T09:33:11.064Z,10.13
2022-11-27T09:37:15.335Z,10.73
2022-11-27T09:41:40.566Z,8.60
2022-11-27T09:45:48.663Z,7.47
2022-11-27T09:49:55.969Z,9.48
2022-11-27T09:54:06.642Z,9.20
2022-11-27T09:58:17.276Z,7.82
2022-11-27T10:02:27.479Z,9.43
2022-11-27T10:06:37.102Z,6.13
2022-11-27T10:10:54.987Z,9.93
2022-11-27T10:15:05.782Z,6.63
2022-11-27T10:19:29.029Z,6.90
2022-11-27T10:23:44.381Z,6.25
2022-11-27T10:28:00.339Z,7.55
2022-11-27T10:32:22.159Z,7.28
2022-11-27T10:36:40.059Z,6.55
2022-11-27T10:40:50.896Z,5.95
2022-11-27T10:45:01.682Z,5.15
2022-11-27T10:49:04.611Z,5.22
2022-11-27T10:53:10.718Z,4.25
2022-11-27T10:57:27.770Z,5.85
2022-11-27T11:01:44.307Z,3.85
2022-11-27T11:06:19.266Z,5.72
2022-11-27T11:10:27.459Z,4.75
2022-11-27T11:14:30.405Z,5.45
2022-11-27T11:18:36.849Z,3.83
2022-11-27T11:22:47.507Z,5.20
2022-11-27T11:26:52.557Z,4.50
2022-11-27T11:30:59.745Z,3.50
2022-11-27T11:35:09.245Z,6.55
2022-11-27T11:39:23.664Z,7.13
2022-11-27T11:43:29.009Z,4.90
2022-11-27T11:47:32.530Z,4.47
2022-11-27T11:52:02.745Z,4.88
2022-11-27T11:56:21.777Z,4.65
2022-11-27T12:00:39.999Z,6.07
2022-11-27T12:05:12.598Z,5.68
2022-11-27T12:09:36.979Z,5.55
2022-11-27T12:14:11.313Z,6.13
2022-11-27T12:18:24.114Z,6.18
2022-11-27T12:22:44.756Z,4.43
2022-11-27T12:27:04.899Z,3.15
2022-11-27T12:31:15.715Z,4.10
2022-11-27T12:35:32.337Z,3.60
2022-11-27T12:39:58.375Z,3.63
2022-11-27T12:44:02.838Z,3.25
2022-11-27T12:48:13.318Z,2.97
2022-11-27T12:52:19.876Z,4.53
2022-11-27T12:56:27.475Z,2.88
2022-11-27T13:00:36.106Z,7.85
2022-11-27T13:04:45.285Z,5.50
2022-11-27T13:08:55.460Z,4.57
2022-11-27T13:13:05.981Z,3.33
2022-11-27T13:17:16.269Z,3.53
2022-11-27T13:21:23.614Z,4.55
2022-11-27T13:25:28.040Z,5.15
2022-11-27T13:29:35.013Z,5.15
2022-11-27T13:33:43.285Z,2.78
2022-11-27T13:37:50.254Z,3.03
2022-11-27T13:42:03.445Z,2.72
2022-11-27T13:46:09.372Z,4.95
2022-11-27T13:50:17.111Z,9.95
2022-11-27T13:54:26.029Z,3.42
2022-11-27T13:58:34.565Z,2.97
2022-11-27T14:02:42.988Z,3.30
2022-11-27T14:06:55.348Z,3.33
2022-11-27T14:11:00.717Z,2.80
2022-11-27T14:15:10.225Z,2.75
2022-11-27T14:19:33.492Z,3.25
2022-11-27T14:23:50.966Z,2.75
2022-11-27T14:28:05.144Z,8.43
2022-11-27T14:32:13.201Z,2.60
2022-11-27T14:36:23.687Z,4.00
2022-11-27T14:40:29.001Z,3.55
2022-11-27T14:44:32.958Z,3.10
2022-11-27T14:48:44.652Z,3.10
2022-11-27T14:52:54.241Z,2.45
2022-11-27T14:56:59.324Z,3.50
2022-11-27T15:01:04.630Z,4.47
2022-11-27T15:05:19.504Z,7.32
2022-11-27T15:09:31.875Z,4.32
2022-11-27T15:13:38.876Z,5.10
2022-11-27T15:17:46.398Z,4.65
2022-11-27T15:21:51.048Z,6.43
2022-11-27T15:26:11.011Z,8.93
2022-11-27T15:30:20.252Z,7.32
2022-11-27T15:34:24.684Z,6.45
2022-11-27T15:38:27.786Z,6.57
2022-11-27T15:42:30.703Z,7.63
2022-11-27T15:46:36.509Z,6.88
2022-11-27T15:50:39.467Z,7.03
2022-11-27T15:54:42.642Z,9.68
2022-11-27T15:58:45.959Z,7.88
2022-11-27T16:02:50.369Z,8.15
2022-11-27T16:06:53.542Z,6.45
2022-11-27T16:11:01.882Z,7.43
2022-11-27T16:15:05.136Z,9.27
2022-11-27T16:19:12.147Z,10.23
2022-11-27T16:23:15.420Z,8.02
2022-11-27T16:27:18.340Z,8.32
2022-11-27T16:31:21.902Z,8.00
2022-11-27T16:35:26.853Z,11.55
2022-11-27T16:39:29.892Z,8.35
2022-11-27T16:43:36.238Z,11.55
2022-11-27T16:47:39.839Z,9.30
2022-11-27T16:51:44.411Z,8.27
2022-11-27T16:55:47.745Z,9.35
2022-11-27T16:59:51.443Z,8.77
2022-11-27T17:03:56.603Z,9.60
2022-11-27T17:08:00.942Z,11.13
2022-11-27T17:12:04.114Z,8.95
2022-11-27T17:16:09.678Z,9.63
2022-11-27T17:20:12.712Z,9.35
2022-11-27T17:24:18.237Z,13.18
2022-11-27T17:28:21.491Z,10.90
2022-11-27T17:32:25.235Z,12.63
2022-11-27T17:36:36.605Z,8.15
2022-11-27T17:40:41.815Z,8.07
2022-11-27T17:44:44.721Z,8.07
2022-11-27T17:48:47.793Z,6.75
2022-11-27T17:52:53.485Z,8.60
2022-11-27T17:56:57.689Z,6.80
2022-11-27T18:01:02.347Z,7.25
2022-11-27T18:05:07.034Z,7.68
2022-11-27T18:09:10.035Z,6.85
2022-11-27T18:13:14.706Z,9.40
2022-11-27T18:17:18.800Z,9.48
2022-11-27T18:21:22.544Z,13.80
2022-11-27T18:25:25.503Z,15.27
2022-11-27T18:29:30.159Z,14.68
2022-11-27T18:33:33.120Z,17.08
2022-11-27T18:37:38.462Z,15.95
2022-11-27T18:41:41.921Z,17.20
2022-11-27T18:45:46.283Z,18.33
2022-11-27T18:49:49.385Z,19.17
2022-11-27T18:53:53.027Z,19.95
2022-11-27T18:57:56.368Z,22.83
2022-11-27T19:02:01.016Z,20.02
2022-11-27T19:06:05.615Z,19.30
2022-11-27T19:10:09.724Z,15.77
2022-11-27T19:14:13.606Z,16.40
2022-11-27T19:18:18.176Z,15.02
2022-11-27T19:22:21.440Z,16.42
2022-11-27T19:26:27.344Z,16.40
2022-11-27T19:30:34.039Z,18.38
2022-11-27T19:34:38.730Z,14.27
2022-11-27T19:38:44.539Z,18.52
2022-11-27T19:42:47.730Z,16.92
2022-11-27T19:46:51.657Z,16.13
2022-11-27T19:51:02.495Z,17.17
2022-11-27T19:55:06.458Z,17.67
2022-11-27T19:59:10.201Z,21.55
2022-11-27T20:03:15.413Z,19.00
2022-11-27T20:07:20.405Z,17.92
2022-11-27T20:11:29.771Z,19.10
2022-11-27T20:15:36.123Z,16.85
2022-11-27T20:19:40.094Z,19.42
2022-11-27T20:23:45.931Z,21.00
2022-11-27T20:27:49.035Z,17.15
2022-11-27T20:31:52.092Z,16.40
2022-11-27T20:35:55.338Z,19.23
2022-11-27T20:40:00.111Z,17.00
2022-11-27T20:44:05.725Z,17.50
2022-11-27T20:48:09.622Z,19.00
2022-11-27T20:52:14.641Z,19.90
2022-11-27T20:56:20.733Z,15.38
2022-11-27T21:00:24.817Z,13.57
2022-11-27T21:04:28.050Z,16.42
2022-11-27T21:08:31.742Z,15.43
2022-11-27T21:12:36.970Z,15.52
2022-11-27T21:16:42.731Z,15.55
2022-11-27T21:20:47.574Z,14.75
2022-11-27T21:24:51.622Z,14.57
2022-11-27T21:28:56.265Z,18.13
2022-11-27T21:33:00.098Z,13.73
2022-11-27T21:37:04.645Z,15.85
2022-11-27T21:41:08.181Z,15.88
2022-11-27T21:45:12.911Z,17.02
2022-11-27T21:49:18.266Z,15.80
2022-11-27T21:53:21.861Z,18.73
2022-11-27T21:57:25.041Z,18.55
2022-11-27T22:01:30.028Z,16.77
2022-11-27T22:05:33.494Z,21.08
2022-11-27T22:09:36.535Z,19.95
2022-11-27T22:13:41.148Z,18.08
2022-11-27T22:17:46.246Z,16.50
2022-11-27T22:21:49.694Z,18.02
2022-11-27T22:25:53.017Z,17.98
2022-11-27T22:29:56.628Z,17.95
2022-11-27T22:34:01.706Z,17.88
2022-11-27T22:38:05.016Z,16.15
2022-11-27T22:42:08.483Z,17.17
2022-11-27T22:46:14.659Z,21.00
2022-11-27T22:50:19.515Z,17.40
2022-11-27T22:54:22.948Z,19.52
2022-11-27T22:58:27.764Z,18.40
2022-11-27T23:02:30.695Z,22.83
2022-11-27T23:06:36.035Z,17.45
2022-11-27T23:10:40.191Z,19.85
2022-11-27T23:14:43.412Z,18.35
2022-11-27T23:18:46.489Z,20.58
2022-11-27T23:22:51.286Z,20.88
2022-11-27T23:26:54.200Z,20.27
2022-11-27T23:31:15.574Z,21.60
2022-11-27T23:35:20.075Z,17.83
2022-11-27T23:39:24.628Z,22.25
2022-11-27T23:43:27.649Z,18.77
2022-11-27T23:47:31.437Z,19.15
2022-11-27T23:51:34.518Z,20.63
2022-11-27T23:55:38.761Z,18.02
2022-11-27T23:59:41.751Z,20.05
